createdAt,value
2023-01-07T00:01:17.592Z,100869.47
2023-01-07T00:03:44.918Z,100714.09
2023-01-07T00:06:33.216Z,100814.72
2023-01-07T00:09:01.369Z,100798.56
2023-01-07T00:11:33.370Z,100807.34
2023-01-07T00:14:01.238Z,100855.97
2023-01-07T00:16:30.168Z,100768.06
2023-01-07T00:18:58.800Z,100859.53
2023-01-07T00:21:26.504Z,100743.28
2023-01-07T00:23:58.678Z,100845.38
2023-01-07T00:26:29.778Z,100810.03
2023-01-07T00:28:57.939Z,100852.56
2023-01-07T00:31:27.067Z,100843.09
2023-01-07T00:33:54.045Z,100815.13
2023-01-07T00:36:28.736Z,100570.69
2023-01-07T00:39:01.172Z,100625.66
2023-01-07T00:41:28.135Z,100660.59
2023-01-07T00:43:55.070Z,100736.13
2023-01-07T00:46:22.310Z,100843.25
2023-01-07T00:48:49.173Z,100588.91
2023-01-07T00:51:16.756Z,100704.78
2023-01-07T00:53:43.656Z,100816.94
2023-01-07T00:56:11.391Z,100816.84
2023-01-07T00:58:38.220Z,100805.81
2023-01-07T01:01:05.338Z,100811.59
2023-01-07T01:03:33.489Z,100813.25
2023-01-07T01:06:08.331Z,100814.28
2023-01-07T01:08:35.752Z,100816.13
2023-01-07T01:11:04.476Z,100813.25
2023-01-07T01:13:30.994Z,100791.50
2023-01-07T01:15:57.828Z,100788.22
2023-01-07T01:18:24.352Z,100659.78
2023-01-07T01:20:50.906Z,100809.69
2023-01-07T01:23:17.484Z,100737.84
2023-01-07T01:25:43.972Z,100686.47
2023-01-07T01:28:10.514Z,100767.25
2023-01-07T01:30:37.076Z,100797.31
2023-01-07T01:33:03.682Z,100728.66
2023-01-07T01:35:30.171Z,100707.72
2023-01-07T01:37:56.812Z,100755.22
2023-01-07T01:40:23.287Z,100757.53
2023-01-07T01:42:49.828Z,100803.25
2023-01-07T01:45:16.346Z,100691.03
2023-01-07T01:47:51.517Z,100795.47
2023-01-07T01:50:23.734Z,100643.59
2023-01-07T01:52:57.015Z,100793.69
2023-01-07T01:55:30.045Z,100680.03
2023-01-07T01:58:00.992Z,100796.69
2023-01-07T02:00:28.638Z,100769.97
2023-01-07T02:02:58.803Z,100783.03
2023-01-07T02:05:30.288Z,100648.56
2023-01-07T02:07:56.924Z,100690.59
2023-01-07T02:10:24.784Z,100675.25
2023-01-07T02:13:17.383Z,100777.72
2023-01-07T02:16:32.878Z,100749.97
2023-01-07T02:19:15.813Z,100660.44
2023-01-07T02:22:20.896Z,100762.34
2023-01-07T02:24:47.324Z,100758.13
2023-01-07T02:27:48.943Z,100762.56
2023-01-07T02:30:33.945Z,100768.88
2023-01-07T02:33:14.963Z,100694.50
2023-01-07T02:35:55.571Z,100765.19
2023-01-07T02:39:14.756Z,100709.22
2023-01-07T02:41:50.256Z,100763.69
2023-01-07T02:44:29.622Z,100760.34
2023-01-07T02:47:13.867Z,100737.09
2023-01-07T02:49:40.519Z,100658.66
2023-01-07T02:52:27.490Z,100743.63
2023-01-07T02:55:01.932Z,100753.16
2023-01-07T02:57:49.994Z,100752.38
2023-01-07T03:00:38.496Z,100751.88
2023-01-07T03:03:25.760Z,100751.16
2023-01-07T03:05:58.375Z,100751.22
2023-01-07T03:08:44.304Z,100701.19
2023-01-07T03:11:12.291Z,100736.63
2023-01-07T03:13:49.050Z,100614.13
2023-01-07T03:16:24.694Z,100576.19
2023-01-07T03:19:02.626Z,100663.72
2023-01-07T03:21:32.855Z,100665.56
2023-01-07T03:24:01.036Z,100732.66
2023-01-07T03:26:33.211Z,100626.50
2023-01-07T03:29:01.765Z,100645.38
2023-01-07T03:31:29.754Z,100532.69
2023-01-07T03:34:10.317Z,100737.28
2023-01-07T03:36:41.069Z,100656.22
2023-01-07T03:39:10.882Z,100698.75
2023-01-07T03:41:59.069Z,100737.25
2023-01-07T03:44:25.868Z,100732.88
2023-01-07T03:46:53.005Z,100700.00
2023-01-07T03:49:19.756Z,100716.44
2023-01-07T03:51:46.662Z,100577.97
2023-01-07T03:54:13.455Z,100701.34
2023-01-07T03:56:39.984Z,100688.06
2023-01-07T03:59:06.550Z,100608.56
2023-01-07T04:01:33.222Z,100545.88
2023-01-07T04:04:02.363Z,100634.75
2023-01-07T04:06:29.715Z,100693.88
2023-01-07T04:08:56.176Z,100635.69
2023-01-07T04:11:22.707Z,100701.06
2023-01-07T04:13:49.171Z,100682.78
2023-01-07T04:16:15.716Z,100562.78
2023-01-07T04:18:42.254Z,100692.78
2023-01-07T04:21:08.752Z,100684.66
2023-01-07T04:23:35.271Z,100697.84
2023-01-07T04:26:01.805Z,100689.53
2023-01-07T04:28:28.349Z,100682.66
2023-01-07T04:30:55.078Z,100606.09
2023-01-07T04:33:21.569Z,100681.00
2023-01-07T04:35:48.666Z,100573.56
2023-01-07T04:38:15.136Z,100613.09
2023-01-07T04:40:41.745Z,100672.56
2023-01-07T04:43:09.626Z,100537.41
2023-01-07T04:45:36.187Z,100564.81
2023-01-07T04:48:03.281Z,100380.25
2023-01-07T04:50:29.835Z,100476.41
2023-01-07T04:52:56.357Z,100502.41
2023-01-07T04:55:23.315Z,100622.69
2023-01-07T04:57:49.880Z,100563.84
2023-01-07T05:00:16.605Z,100651.91
2023-01-07T05:02:43.109Z,100519.34
2023-01-07T05:05:10.144Z,100608.09
2023-01-07T05:07:36.972Z,100642.47
2023-01-07T05:10:04.112Z,100435.19
2023-01-07T05:12:34.328Z,100606.56
2023-01-07T05:15:02.005Z,100601.84
2023-01-07T05:17:28.845Z,100568.63
2023-01-07T05:19:55.379Z,100566.78
2023-01-07T05:22:22.031Z,100608.22
2023-01-07T05:24:48.687Z,100462.34
2023-01-07T05:27:15.343Z,100549.66
2023-01-07T05:29:42.039Z,100363.13
2023-01-07T05:32:08.659Z,100535.53
2023-01-07T05:34:35.285Z,100622.53
2023-01-07T05:37:01.783Z,100581.19
2023-01-07T05:39:28.301Z,100542.31
2023-01-07T05:41:54.922Z,100555.16
2023-01-07T05:44:21.411Z,100501.91
2023-01-07T05:46:47.918Z,100623.38
2023-01-07T05:49:14.535Z,100573.25
2023-01-07T05:51:41.069Z,100608.56
2023-01-07T05:54:07.804Z,100562.75
2023-01-07T05:56:35.075Z,100569.75
2023-01-07T05:59:02.264Z,100560.91
2023-01-07T06:01:28.901Z,100566.19
2023-01-07T06:03:55.508Z,100558.28
2023-01-07T06:06:22.115Z,100555.69
2023-01-07T06:08:48.694Z,100487.50
2023-01-07T06:11:15.170Z,100441.19
2023-01-07T06:13:41.656Z,100569.41
2023-01-07T06:16:10.198Z,100475.75
2023-01-07T06:18:36.971Z,100508.50
2023-01-07T06:21:03.617Z,100573.16
2023-01-07T06:23:31.342Z,100551.94
2023-01-07T06:25:57.937Z,100455.47
2023-01-07T06:28:24.447Z,100582.72
2023-01-07T06:30:51.062Z,100520.81
2023-01-07T06:33:17.616Z,100576.50
2023-01-07T06:35:46.032Z,100478.81
2023-01-07T06:38:13.168Z,100533.59
2023-01-07T06:40:39.790Z,100455.00
2023-01-07T06:43:06.413Z,100472.69
2023-01-07T06:45:32.890Z,100554.25
2023-01-07T06:47:59.594Z,100548.03
2023-01-07T06:50:26.230Z,100521.53
2023-01-07T06:52:52.920Z,100535.25
2023-01-07T06:55:19.445Z,100416.16
2023-01-07T06:57:46.016Z,100445.94
2023-01-07T07:00:13.076Z,100434.66
2023-01-07T07:02:39.766Z,100513.00
2023-01-07T07:05:06.536Z,100530.59
2023-01-07T07:07:33.169Z,100400.69
2023-01-07T07:09:59.711Z,100517.59
2023-01-07T07:12:26.230Z,100498.75
2023-01-07T07:14:52.706Z,100513.41
2023-01-07T07:17:19.224Z,100533.28
2023-01-07T07:19:45.731Z,100385.31
2023-01-07T07:22:12.267Z,100489.66
2023-01-07T07:24:38.906Z,100520.47
2023-01-07T07:27:05.355Z,100518.06
2023-01-07T07:29:31.938Z,100376.03
2023-01-07T07:31:58.451Z,100492.28
2023-01-07T07:34:25.110Z,100494.41
2023-01-07T07:36:51.661Z,100511.03
2023-01-07T07:39:18.187Z,100459.69
2023-01-07T07:41:44.687Z,100479.69
2023-01-07T07:44:11.275Z,100423.28
2023-01-07T07:46:37.889Z,100461.94
2023-01-07T07:49:06.069Z,100436.69
2023-01-07T07:51:32.994Z,100476.75
2023-01-07T07:53:59.514Z,100513.44
2023-01-07T07:56:26.023Z,100514.28
2023-01-07T07:58:52.528Z,100415.16
2023-01-07T08:01:19.104Z,100475.38
2023-01-07T08:03:45.758Z,100457.44
2023-01-07T08:06:13.010Z,100379.81
2023-01-07T08:08:39.559Z,100462.72
2023-01-07T08:11:06.127Z,100446.38
2023-01-07T08:13:32.655Z,100444.78
2023-01-07T08:15:59.242Z,100481.75
2023-01-07T08:18:25.830Z,100491.88
2023-01-07T08:20:52.435Z,100474.63
2023-01-07T08:23:19.095Z,100424.59
2023-01-07T08:25:45.647Z,100455.22
2023-01-07T08:28:12.182Z,100456.94
2023-01-07T08:30:38.782Z,100356.72
2023-01-07T08:33:07.766Z,100477.31
2023-01-07T08:35:35.048Z,100448.50
2023-01-07T08:38:08.536Z,100425.00
2023-01-07T08:40:36.569Z,100478.00
2023-01-07T08:43:05.319Z,100458.66
2023-01-07T08:45:32.637Z,100436.56
2023-01-07T08:47:59.785Z,100464.91
2023-01-07T08:50:28.965Z,100449.94
2023-01-07T08:52:55.606Z,100455.72
2023-01-07T08:55:22.407Z,100438.84
2023-01-07T08:57:50.467Z,100457.53
2023-01-07T09:00:18.801Z,100390.31
2023-01-07T09:02:45.592Z,100385.41
2023-01-07T09:05:12.342Z,100451.44
2023-01-07T09:07:38.918Z,100231.47
2023-01-07T09:10:06.401Z,100354.19
2023-01-07T09:12:33.058Z,100324.13
2023-01-07T09:14:59.532Z,100433.97
2023-01-07T09:17:26.238Z,100440.78
2023-01-07T09:19:52.730Z,100225.00
2023-01-07T09:22:19.400Z,100280.47
2023-01-07T09:24:47.867Z,100336.84
2023-01-07T09:27:16.708Z,100382.25
2023-01-07T09:29:43.598Z,100347.94
2023-01-07T09:32:11.009Z,100402.44
2023-01-07T09:34:38.473Z,100336.00
2023-01-07T09:37:06.497Z,100375.69
2023-01-07T09:39:36.531Z,100159.09
2023-01-07T09:42:09.739Z,100412.44
2023-01-07T09:45:08.537Z,100421.91
2023-01-07T09:47:44.555Z,100153.56
2023-01-07T09:50:21.808Z,100397.50
2023-01-07T09:53:05.400Z,100239.72
2023-01-07T09:55:35.418Z,100390.84
2023-01-07T09:58:43.226Z,100319.16
2023-01-07T10:01:25.087Z,100416.25
2023-01-07T10:04:28.856Z,100405.50
2023-01-07T10:07:25.513Z,100408.09
2023-01-07T10:10:12.756Z,100399.81
2023-01-07T10:12:48.183Z,100337.25
2023-01-07T10:15:34.778Z,100288.81
2023-01-07T10:18:19.956Z,100369.94
2023-01-07T10:20:57.042Z,100379.22
2023-01-07T10:23:37.912Z,100200.16
2023-01-07T10:26:12.138Z,100051.88
2023-01-07T10:29:08.016Z,100134.34
2023-01-07T10:31:38.903Z,100395.09
2023-01-07T10:34:19.763Z,100395.69
2023-01-07T10:37:02.219Z,100283.19
2023-01-07T10:40:02.840Z,100339.28
2023-01-07T10:42:39.876Z,100248.00
2023-01-07T10:45:30.712Z,100261.06
2023-01-07T10:48:12.548Z,100333.72
2023-01-07T10:51:07.551Z,100275.09
2023-01-07T10:54:03.029Z,100330.75
2023-01-07T10:56:37.444Z,100175.78
2023-01-07T10:59:04.454Z,100229.97
2023-01-07T11:01:40.050Z,99965.22
2023-01-07T11:04:15.201Z,100154.44
2023-01-07T11:06:58.549Z,100098.13
2023-01-07T11:09:32.396Z,100134.47
2023-01-07T11:12:08.542Z,100149.00
2023-01-07T11:14:41.050Z,100302.56
2023-01-07T11:17:26.195Z,100118.78
2023-01-07T11:19:52.893Z,100167.34
2023-01-07T11:22:25.484Z,100221.94
2023-01-07T11:24:56.169Z,100266.25
2023-01-07T11:27:25.155Z,100275.50
2023-01-07T11:30:10.389Z,100254.44
2023-01-07T11:32:43.146Z,100215.31
2023-01-07T11:35:15.631Z,100246.16
2023-01-07T11:37:47.173Z,100238.03
2023-01-07T11:40:13.739Z,100231.69
2023-01-07T11:42:52.485Z,100181.25
2023-01-07T11:45:25.624Z,100093.47
2023-01-07T11:48:00.276Z,100225.53
2023-01-07T11:50:41.420Z,100178.34
2023-01-07T11:53:13.907Z,100216.09
2023-01-07T11:55:57.598Z,100071.91
2023-01-07T11:58:29.306Z,100085.94
2023-01-07T12:01:12.337Z,100080.81
2023-01-07T12:03:43.452Z,100202.41
2023-01-07T12:06:19.089Z,100198.13
2023-01-07T12:08:56.230Z,100146.19
2023-01-07T12:11:29.940Z,100096.31
2023-01-07T12:13:57.908Z,100006.38
2023-01-07T12:16:28.967Z,100016.97
2023-01-07T12:19:17.220Z,100169.41
2023-01-07T12:22:07.123Z,100089.13
2023-01-07T12:24:46.108Z,100167.34
2023-01-07T12:27:31.342Z,100090.31
2023-01-07T12:30:14.637Z,100036.72
2023-01-07T12:32:41.312Z,100157.50
2023-01-07T12:35:26.015Z,100023.13
2023-01-07T12:38:14.179Z,100143.22
2023-01-07T12:40:51.866Z,99877.22
2023-01-07T12:43:21.046Z,100063.19
2023-01-07T12:46:02.578Z,100128.75
2023-01-07T12:48:41.728Z,100124.66
2023-01-07T12:51:16.668Z,100130.81
2023-01-07T12:53:59.868Z,100030.78
2023-01-07T12:56:46.625Z,99840.94
2023-01-07T12:59:46.256Z,100076.00
2023-01-07T13:02:20.178Z,99940.75
2023-01-07T13:05:00.514Z,100103.47
2023-01-07T13:07:48.738Z,100107.56
2023-01-07T13:10:22.050Z,100115.22
2023-01-07T13:12:52.232Z,100037.53
2023-01-07T13:15:29.687Z,100049.34
2023-01-07T13:18:12.603Z,100105.63
2023-01-07T13:20:57.525Z,100094.25
2023-01-07T13:23:49.047Z,100086.28
2023-01-07T13:26:32.621Z,100077.31
2023-01-07T13:29:11.269Z,100076.06
2023-01-07T13:32:08.590Z,100075.44
2023-01-07T13:35:12.673Z,100067.94
2023-01-07T13:38:36.517Z,100060.06
2023-01-07T13:41:54.291Z,100037.06
2023-01-07T13:45:01.697Z,100072.97
2023-01-07T13:47:50.719Z,100067.34
2023-01-07T13:50:33.398Z,100064.44
2023-01-07T13:53:04.024Z,99944.00
2023-01-07T13:55:32.569Z,100063.47
2023-01-07T13:57:59.303Z,99967.09
2023-01-07T14:00:38.039Z,100063.06
2023-01-07T14:03:04.909Z,99960.59
2023-01-07T14:05:31.470Z,99915.59
2023-01-07T14:08:04.025Z,99911.00
2023-01-07T14:10:33.567Z,99950.16
2023-01-07T14:13:32.872Z,99906.19
2023-01-07T14:16:12.751Z,100057.06
2023-01-07T14:18:55.821Z,100033.97
2023-01-07T14:21:42.363Z,100039.97
2023-01-07T14:24:22.805Z,100039.78
2023-01-07T14:27:21.322Z,100046.03
2023-01-07T14:29:51.271Z,100052.97
2023-01-07T14:32:34.274Z,100039.44
2023-01-07T14:35:07.971Z,100049.88
2023-01-07T14:37:46.925Z,100022.34
2023-01-07T14:40:25.604Z,99983.00
2023-01-07T14:42:53.911Z,100032.00
2023-01-07T14:45:39.173Z,100031.50
2023-01-07T14:48:08.678Z,100033.19
2023-01-07T14:50:43.871Z,100021.16
2023-01-07T14:53:13.001Z,100025.25
2023-01-07T14:56:01.259Z,100021.75
2023-01-07T14:58:50.925Z,100015.44
2023-01-07T15:01:59.590Z,99974.88
2023-01-07T15:04:35.172Z,100020.22
2023-01-07T15:07:03.384Z,99855.91
2023-01-07T15:10:05.767Z,99828.66
2023-01-07T15:12:55.273Z,99955.41
2023-01-07T15:15:43.724Z,100012.34
2023-01-07T15:18:12.073Z,100010.88
2023-01-07T15:21:19.193Z,100000.97
2023-01-07T15:24:15.051Z,100005.06
2023-01-07T15:27:13.086Z,100012.84
2023-01-07T15:29:57.617Z,100016.72
2023-01-07T15:32:37.963Z,99945.78
2023-01-07T15:35:14.816Z,100012.66
2023-01-07T15:37:48.812Z,100019.75
2023-01-07T15:40:21.221Z,100020.78
2023-01-07T15:42:51.730Z,99923.16
2023-01-07T15:45:21.102Z,99934.09
2023-01-07T15:47:48.070Z,100008.47
2023-01-07T15:50:21.552Z,100004.41
2023-01-07T15:52:50.421Z,99952.47
2023-01-07T15:55:30.509Z,100002.94
2023-01-07T15:58:03.593Z,99978.38
2023-01-07T16:00:30.443Z,99941.94
2023-01-07T16:02:57.809Z,99979.47
2023-01-07T16:05:27.966Z,99973.25
2023-01-07T16:07:57.863Z,99996.00
2023-01-07T16:10:28.434Z,100009.84
2023-01-07T16:12:57.495Z,99886.41
2023-01-07T16:15:28.187Z,99723.38
2023-01-07T16:18:00.041Z,100009.78
2023-01-07T16:20:43.841Z,99999.41
2023-01-07T16:23:17.043Z,99991.31
2023-01-07T16:25:46.989Z,99890.00
2023-01-07T16:28:24.418Z,99790.34
2023-01-07T16:30:52.948Z,99993.59
2023-01-07T16:33:22.659Z,99793.72
2023-01-07T16:35:51.318Z,99993.19
2023-01-07T16:38:22.424Z,99997.41
2023-01-07T16:40:50.887Z,99797.38
2023-01-07T16:43:33.344Z,99968.75
2023-01-07T16:46:27.261Z,99967.09
2023-01-07T16:49:09.086Z,99962.66
2023-01-07T16:51:39.996Z,99946.44
2023-01-07T16:54:25.975Z,99858.16
2023-01-07T16:56:55.505Z,99969.09
2023-01-07T16:59:27.497Z,99851.53
2023-01-07T17:01:54.899Z,99816.09
2023-01-07T17:04:35.007Z,99744.44
2023-01-07T17:07:03.000Z,99861.81
2023-01-07T17:09:38.926Z,99899.41
2023-01-07T17:12:06.372Z,99933.50
2023-01-07T17:14:34.000Z,99945.56
2023-01-07T17:17:20.904Z,99847.56
2023-01-07T17:20:19.172Z,99793.38
2023-01-07T17:22:47.349Z,99860.94
2023-01-07T17:25:15.416Z,99932.53
2023-01-07T17:27:58.718Z,99929.47
2023-01-07T17:30:35.535Z,99882.97
2023-01-07T17:33:03.094Z,99811.88
2023-01-07T17:35:29.785Z,99936.63
2023-01-07T17:37:56.951Z,99789.34
2023-01-07T17:40:23.718Z,99788.03
2023-01-07T17:43:09.239Z,99884.00
2023-01-07T17:45:35.956Z,99605.66
2023-01-07T17:48:02.868Z,99828.59
2023-01-07T17:50:46.958Z,99735.75
2023-01-07T17:53:23.574Z,99680.38
2023-01-07T17:55:50.308Z,99831.31
2023-01-07T17:58:30.424Z,99930.56
2023-01-07T18:00:59.081Z,99785.31
2023-01-07T18:03:26.601Z,99835.44
2023-01-07T18:05:53.295Z,99830.59
2023-01-07T18:08:19.990Z,99834.22
2023-01-07T18:11:05.304Z,99917.44
2023-01-07T18:13:32.285Z,99919.53
2023-01-07T18:15:59.108Z,99895.25
2023-01-07T18:18:28.508Z,99648.41
2023-01-07T18:21:05.671Z,99810.50
2023-01-07T18:23:32.370Z,99606.97
2023-01-07T18:25:59.896Z,99776.75
2023-01-07T18:28:26.613Z,99833.88
2023-01-07T18:30:53.184Z,99794.19
2023-01-07T18:33:19.804Z,99930.78
2023-01-07T18:35:47.500Z,99642.69
2023-01-07T18:38:15.709Z,99795.25
2023-01-07T18:40:43.289Z,99747.28
2023-01-07T18:43:15.063Z,99909.00
2023-01-07T18:45:43.479Z,99916.13
2023-01-07T18:48:12.708Z,99917.84
2023-01-07T18:50:46.873Z,99818.69
2023-01-07T18:53:14.275Z,99793.16
2023-01-07T18:55:42.930Z,99649.53
2023-01-07T18:58:13.708Z,99779.88
2023-01-07T19:00:41.492Z,99753.53
2023-01-07T19:03:09.055Z,99819.44
2023-01-07T19:05:40.357Z,99889.69
2023-01-07T19:08:08.204Z,99545.34
2023-01-07T19:10:34.824Z,99779.75
2023-01-07T19:13:01.690Z,99883.84
2023-01-07T19:15:28.477Z,99918.63
2023-01-07T19:17:55.105Z,99747.31
2023-01-07T19:20:21.675Z,99750.34
2023-01-07T19:22:48.473Z,99754.41
2023-01-07T19:25:15.240Z,99868.28
2023-01-07T19:27:41.816Z,99742.44
2023-01-07T19:30:10.114Z,99594.44
2023-01-07T19:32:36.769Z,99789.50
2023-01-07T19:35:03.529Z,99826.56
2023-01-07T19:37:30.337Z,99806.94
2023-01-07T19:39:57.146Z,99548.94
2023-01-07T19:42:24.296Z,99813.94
2023-01-07T19:44:51.278Z,99817.38
2023-01-07T19:47:18.016Z,99669.47
2023-01-07T19:49:50.640Z,99686.91
2023-01-07T19:52:17.679Z,99530.16
2023-01-07T19:54:45.124Z,99688.44
2023-01-07T19:57:14.660Z,99593.72
2023-01-07T19:59:41.591Z,99879.38
2023-01-07T20:02:08.300Z,99770.75
2023-01-07T20:04:35.053Z,99761.56
2023-01-07T20:07:01.763Z,99639.09
2023-01-07T20:09:28.617Z,99852.56
2023-01-07T20:11:55.222Z,99763.16
2023-01-07T20:14:21.804Z,99658.25
2023-01-07T20:16:49.028Z,99687.44
2023-01-07T20:19:16.079Z,99659.81
2023-01-07T20:21:43.198Z,99659.75
2023-01-07T20:24:12.455Z,99807.69
2023-01-07T20:26:39.140Z,99826.38
2023-01-07T20:29:05.649Z,99735.53
2023-01-07T20:31:32.128Z,99757.47
2023-01-07T20:33:59.465Z,99824.06
2023-01-07T20:36:29.165Z,99832.09
2023-01-07T20:38:55.898Z,99737.25
2023-01-07T20:41:25.956Z,99750.34
2023-01-07T20:43:58.141Z,99861.63
2023-01-07T20:46:26.906Z,99867.38
2023-01-07T20:48:53.711Z,99802.63
2023-01-07T20:51:20.351Z,99819.91
2023-01-07T20:53:47.848Z,99866.38
2023-01-07T20:56:18.096Z,99727.66
2023-01-07T20:58:45.407Z,99843.97
2023-01-07T21:01:14.961Z,99841.13
2023-01-07T21:03:42.416Z,99657.97
2023-01-07T21:06:11.160Z,99682.16
2023-01-07T21:08:38.383Z,99853.88
2023-01-07T21:11:10.947Z,99627.56
2023-01-07T21:13:37.583Z,99633.53
2023-01-07T21:16:04.899Z,99636.94
2023-01-07T21:18:33.575Z,99779.16
2023-01-07T21:21:01.939Z,99704.16
2023-01-07T21:23:31.280Z,99628.94
2023-01-07T21:25:58.091Z,99818.06
2023-01-07T21:28:25.833Z,99637.63
2023-01-07T21:30:52.513Z,99624.75
2023-01-07T21:33:19.218Z,99746.88
2023-01-07T21:35:45.954Z,99813.22
2023-01-07T21:38:14.945Z,99649.13
2023-01-07T21:40:41.518Z,99628.88
2023-01-07T21:43:08.164Z,99835.28
2023-01-07T21:45:36.772Z,99664.13
2023-01-07T21:48:03.570Z,99482.25
2023-01-07T21:50:30.325Z,99787.41
2023-01-07T21:52:57.364Z,99665.84
2023-01-07T21:55:23.881Z,99768.06
2023-01-07T21:57:50.710Z,99743.63
2023-01-07T22:00:17.539Z,99702.38
2023-01-07T22:02:44.754Z,99669.94
2023-01-07T22:05:12.082Z,99727.38
2023-01-07T22:07:39.264Z,99747.78
2023-01-07T22:10:06.583Z,99717.97
2023-01-07T22:12:33.284Z,99746.88
2023-01-07T22:15:00.262Z,99531.63
2023-01-07T22:17:26.925Z,99567.00
2023-01-07T22:19:53.465Z,99691.94
2023-01-07T22:22:21.019Z,99682.00
2023-01-07T22:24:47.752Z,99677.19
2023-01-07T22:27:14.315Z,99805.78
2023-01-07T22:29:42.368Z,99685.75
2023-01-07T22:32:09.118Z,99676.13
2023-01-07T22:34:35.869Z,99782.41
2023-01-07T22:37:15.285Z,99793.53
2023-01-07T22:39:46.241Z,99728.81
2023-01-07T22:42:17.689Z,99610.09
2023-01-07T22:44:57.786Z,99605.16
2023-01-07T22:47:29.193Z,99779.91
2023-01-07T22:49:56.951Z,99643.69
2023-01-07T22:52:23.643Z,99601.78
2023-01-07T22:54:50.319Z,99741.50
2023-01-07T22:57:16.999Z,99526.06
2023-01-07T22:59:45.689Z,99561.16
2023-01-07T23:02:13.520Z,99776.72
2023-01-07T23:04:40.819Z,99671.03
2023-01-07T23:07:07.416Z,99758.78
2023-01-07T23:09:33.982Z,99679.22
2023-01-07T23:12:00.881Z,99666.91
2023-01-07T23:14:29.813Z,99754.50
2023-01-07T23:16:57.198Z,99683.78
2023-01-07T23:19:23.681Z,99636.13
2023-01-07T23:21:52.922Z,99707.31
2023-01-07T23:24:20.414Z,99759.13
2023-01-07T23:26:51.325Z,99758.03
2023-01-07T23:29:18.635Z,99705.94
2023-01-07T23:31:45.678Z,99727.28
2023-01-07T23:34:13.415Z,99710.66
2023-01-07T23:36:39.936Z,99611.34
2023-01-07T23:39:06.872Z,99714.72
2023-01-07T23:41:33.603Z,99723.56
2023-01-07T23:44:00.083Z,99519.13
2023-01-07T23:46:26.621Z,99670.22
2023-01-07T23:48:53.065Z,99554.13
2023-01-07T23:51:21.174Z,99698.94
2023-01-07T23:53:48.072Z,99696.38
2023-01-07T23:56:17.755Z,99690.00
2023-01-07T23:58:44.213Z,99584.91
